ICAO code: LHPR | IATA code: QGY | SITA: QGYAPXH | AFTN: LHPRZPZX

Időjárási adatok

METAR LHPR 031545Z AUTO 35011KT CAVOK 15/M02 Q1014=
TAF LHPR 031415Z 0315/0324 31014G24KT CAVOK BECMG 0315/0318 28006KT=
Nem volt érdemleges időjárási jelenség az elmúlt órában
2020-04-03 16:00:00 UTC
Hőmérséklet
14.4 °C
 
Harmatpont
-1.7 °C
 
Rel. páratartalom
33%
 
QNH
1014.4 hPa
 
Szélsebesség
4.9 m/s
Max
8.3 m/s
Szélirány
360°
 
Csapadék (1 óra)
0.0 mm
 
Látótávolság
19840 m
 
RVR
>1500 m RWY30
 
1. felhőréteg mennyisége
4 octa
 
1. felhőréteg alapja
2420 m